Time;durP1;ratioP1;P1;durP2;ratioP2;P2;SDS_P1;SDS_P2;PMS_P1;PMS_P2;Temp;Humidity;BMP_temperature;BMP_pressure;BME280_temperature;BME280_humidity;BME280_pressure;Samples;Min_cycle;Max_cycle;Signal;HPM_P1;HPM_P2
2023/07/29 00:01:41;;;;;;;0.30;0.10;;;18.20;99.90;;;;;;5074291;28;20431;-57
2023/07/29 00:04:09;;;;;;;0.30;0.10;;;18.20;99.90;;;;;;5074512;28;20431;-58
2023/07/29 00:06:36;;;;;;;0.30;0.10;;;18.20;99.90;;;;;;5074449;28;20521;-58
2023/07/29 00:09:04;;;;;;;0.30;0.10;;;18.20;99.90;;;;;;5073476;28;20422;-57
2023/07/29 00:11:33;;;;;;;0.30;0.10;;;18.20;99.90;;;;;;5074208;28;20518;-58
2023/07/29 00:14:00;;;;;;;0.30;0.10;;;18.20;99.90;;;;;;5074780;28;20506;-56
2023/07/29 00:16:27;;;;;;;0.30;0.10;;;18.30;99.90;;;;;;5074455;28;20434;-58
2023/07/29 00:18:55;;;;;;;0.40;0.10;;;18.30;99.90;;;;;;5074369;28;20431;-58
2023/07/29 00:21:22;;;;;;;0.60;0.20;;;18.30;99.90;;;;;;5074456;28;20853;-58
2023/07/29 00:23:49;;;;;;;0.50;0.30;;;18.40;99.90;;;;;;5074893;28;20424;-59
2023/07/29 00:26:16;;;;;;;0.40;0.30;;;18.40;99.90;;;;;;5074920;28;20431;-59
2023/07/29 00:28:44;;;;;;;0.82;0.40;;;18.40;99.90;;;;;;5074327;28;20473;-59
2023/07/29 00:31:11;;;;;;;0.60;0.40;;;18.40;99.90;;;;;;5073470;28;20932;-59
2023/07/29 00:33:38;;;;;;;0.80;0.30;;;18.40;99.90;;;;;;5074506;28;20860;-59
2023/07/29 00:36:06;;;;;;;1.00;0.30;;;18.40;99.90;;;;;;5074197;28;20424;-57
2023/07/29 00:38:33;;;;;;;0.55;0.30;;;18.40;99.90;;;;;;5076662;28;20854;-59
2023/07/29 00:41:03;;;;;;;0.50;0.30;;;18.40;99.90;;;;;;5078070;28;20488;-58
2023/07/29 00:43:30;;;;;;;0.80;0.40;;;18.40;99.90;;;;;;5076591;28;20488;-59
2023/07/29 00:45:58;;;;;;;0.50;0.30;;;18.40;99.90;;;;;;5077590;28;20723;-58
2023/07/29 00:48:26;;;;;;;0.85;0.30;;;18.50;99.90;;;;;;5077409;28;20788;-59
2023/07/29 00:50:53;;;;;;;0.60;0.35;;;18.50;99.90;;;;;;5078701;28;20415;-58
2023/07/29 00:53:20;;;;;;;1.00;0.30;;;18.50;99.90;;;;;;5078089;28;20789;-58
2023/07/29 00:55:47;;;;;;;1.30;0.30;;;18.50;99.90;;;;;;5077305;28;20748;-58
2023/07/29 00:58:15;;;;;;;0.60;0.40;;;18.50;99.90;;;;;;5077633;28;20739;-57
2023/07/29 01:00:42;;;;;;;0.55;0.30;;;18.50;99.90;;;;;;5077912;28;20432;-57
2023/07/29 01:03:11;;;;;;;0.70;0.40;;;18.50;99.90;;;;;;5077169;28;20789;-59
2023/07/29 01:05:57;;;;;;;1.60;0.30;;;18.50;99.90;;;;;;5076773;28;20843;-58
2023/07/29 01:08:39;;;;;;;0.50;0.30;;;18.60;99.90;;;;;;5076269;28;20427;-58
2023/07/29 01:11:18;;;;;;;0.80;0.40;;;18.70;99.90;;;;;;5074872;28;20427;-59
2023/07/29 01:13:52;;;;;;;1.30;0.40;;;18.60;99.90;;;;;;5075281;28;20436;-59
2023/07/29 01:16:26;;;;;;;0.65;0.40;;;18.60;99.90;;;;;;5075425;28;20517;-59
2023/07/29 01:18:56;;;;;;;0.80;0.40;;;18.50;99.90;;;;;;5075935;28;20843;-57
2023/07/29 01:21:25;;;;;;;0.60;0.30;;;18.50;99.90;;;;;;5075281;28;20427;-58
2023/07/29 01:23:59;;;;;;;0.70;0.30;;;18.50;99.90;;;;;;5075552;28;20495;-58
2023/07/29 01:26:29;;;;;;;0.60;0.40;;;18.50;99.90;;;;;;5076349;28;20411;-58
2023/07/29 01:28:56;;;;;;;0.57;0.35;;;18.60;99.90;;;;;;5076013;28;20516;-58
2023/07/29 01:31:31;;;;;;;0.50;0.30;;;18.50;99.90;;;;;;5075518;28;20848;-58
2023/07/29 01:34:02;;;;;;;0.90;0.30;;;18.50;99.90;;;;;;5075818;28;20693;-58
2023/07/29 01:36:33;;;;;;;0.50;0.40;;;18.50;99.90;;;;;;5075870;28;20427;-58
2023/07/29 01:39:03;;;;;;;0.60;0.40;;;18.40;99.90;;;;;;5076324;28;20862;-59
2023/07/29 01:41:31;;;;;;;0.98;0.38;;;18.40;99.90;;;;;;5076474;28;20552;-58
2023/07/29 01:43:58;;;;;;;0.80;0.30;;;18.40;99.90;;;;;;5076429;28;20446;-58
2023/07/29 01:46:27;;;;;;;0.70;0.40;;;18.40;99.90;;;;;;5076956;28;20438;-59
2023/07/29 01:48:55;;;;;;;0.95;0.50;;;18.40;99.90;;;;;;5074759;28;20702;-59
2023/07/29 01:51:22;;;;;;;1.40;0.40;;;18.30;99.90;;;;;;5075931;28;20457;-58
2023/07/29 01:53:49;;;;;;;1.00;0.40;;;18.40;99.90;;;;;;5076969;28;20426;-58
2023/07/29 01:56:18;;;;;;;0.60;0.30;;;18.30;99.90;;;;;;5075840;28;20428;-58
2023/07/29 01:58:45;;;;;;;0.70;0.40;;;18.30;99.90;;;;;;5075961;28;20439;-58
2023/07/29 02:01:12;;;;;;;0.65;0.35;;;18.30;99.90;;;;;;5077182;28;20481;-58
2023/07/29 02:03:39;;;;;;;1.20;0.40;;;18.30;99.90;;;;;;5074934;28;20518;-58
2023/07/29 02:06:06;;;;;;;0.70;0.40;;;18.30;99.90;;;;;;5074619;28;20480;-59
2023/07/29 02:08:33;;;;;;;0.50;0.30;;;18.40;99.90;;;;;;5075320;28;20781;-58
2023/07/29 02:11:00;;;;;;;0.60;0.30;;;18.40;99.90;;;;;;5076169;28;20846;-58
2023/07/29 02:13:29;;;;;;;0.60;0.30;;;18.40;99.90;;;;;;5073838;28;20427;-59
2023/07/29 02:15:56;;;;;;;0.60;0.30;;;18.40;99.90;;;;;;5074774;28;20431;-58
2023/07/29 02:18:23;;;;;;;0.50;0.30;;;18.30;99.90;;;;;;5075867;28;20446;-58
2023/07/29 02:20:50;;;;;;;0.68;0.40;;;18.30;99.90;;;;;;5076596;28;20419;-59
2023/07/29 02:23:17;;;;;;;0.60;0.40;;;18.30;99.90;;;;;;5076561;28;20879;-60
2023/07/29 02:25:44;;;;;;;0.50;0.30;;;18.20;99.90;;;;;;5076350;28;20866;-58
2023/07/29 02:28:12;;;;;;;1.10;0.30;;;18.20;99.90;;;;;;5074599;28;20427;-57
2023/07/29 02:30:44;;;;;;;0.60;0.38;;;18.20;99.90;;;;;;5075020;28;20530;-58
2023/07/29 02:33:11;;;;;;;0.50;0.40;;;18.10;99.90;;;;;;5075018;28;20463;-58
2023/07/29 02:35:38;;;;;;;0.60;0.40;;;18.10;99.90;;;;;;5075130;28;20420;-58
2023/07/29 02:38:05;;;;;;;1.00;0.70;;;18.10;99.90;;;;;;5075055;28;20435;-58
2023/07/29 02:40:32;;;;;;;0.80;0.60;;;18.10;99.90;;;;;;5075221;28;20495;-58
2023/07/29 02:42:59;;;;;;;1.55;0.40;;;18.10;99.90;;;;;;5074950;28;20434;-58
2023/07/29 02:45:26;;;;;;;0.80;0.50;;;18.10;99.90;;;;;;5075075;28;20424;-58
2023/07/29 02:47:54;;;;;;;0.70;0.40;;;18.10;99.90;;;;;;5075684;28;20423;-58
2023/07/29 02:50:21;;;;;;;1.00;0.50;;;18.10;99.90;;;;;;5075858;28;20426;-58
2023/07/29 02:52:48;;;;;;;0.80;0.30;;;18.20;99.90;;;;;;5075204;28;20432;-59
2023/07/29 02:55:15;;;;;;;0.50;0.30;;;18.20;99.90;;;;;;5075528;28;20749;-59
2023/07/29 02:57:42;;;;;;;0.90;0.40;;;18.20;99.90;;;;;;5074565;28;20431;-58
2023/07/29 03:00:11;;;;;;;0.90;0.40;;;18.30;99.90;;;;;;5074786;28;20859;-58
2023/07/29 03:02:38;;;;;;;0.60;0.40;;;18.30;99.90;;;;;;5075173;28;20443;-56
2023/07/29 03:05:07;;;;;;;0.70;0.40;;;18.30;99.90;;;;;;5075821;28;20424;-58
2023/07/29 03:07:34;;;;;;;0.50;0.30;;;18.30;99.90;;;;;;5075248;28;20731;-58
2023/07/29 03:10:01;;;;;;;0.70;0.40;;;18.30;99.90;;;;;;5075251;28;20427;-58
2023/07/29 03:12:28;;;;;;;0.90;0.40;;;18.30;99.90;;;;;;5075638;28;20428;-58
2023/07/29 03:14:56;;;;;;;0.80;0.40;;;18.20;99.90;;;;;;5074888;28;20515;-58
2023/07/29 03:17:23;;;;;;;0.60;0.40;;;18.30;99.90;;;;;;5075427;28;20442;-58
2023/07/29 03:19:50;;;;;;;0.90;0.30;;;18.30;99.90;;;;;;5075342;28;20435;-58
2023/07/29 03:22:18;;;;;;;0.50;0.30;;;18.30;99.90;;;;;;5074983;28;20489;-57
2023/07/29 03:24:45;;;;;;;0.55;0.30;;;18.30;99.90;;;;;;5074996;28;20434;-58
2023/07/29 03:27:13;;;;;;;0.90;0.40;;;18.30;99.90;;;;;;5074864;28;20428;-57
2023/07/29 03:29:40;;;;;;;1.30;0.30;;;18.40;99.90;;;;;;5072695;28;20425;-58
2023/07/29 03:32:07;;;;;;;0.60;0.40;;;18.40;99.90;;;;;;5072173;28;20480;-57
2023/07/29 03:34:35;;;;;;;0.50;0.30;;;18.50;99.90;;;;;;5072243;28;20492;-57
2023/07/29 03:37:02;;;;;;;1.00;0.40;;;18.50;99.90;;;;;;5071874;28;20539;-57
2023/07/29 03:39:30;;;;;;;0.50;0.30;;;18.60;99.90;;;;;;5071797;28;20440;-57
2023/07/29 03:41:57;;;;;;;0.60;0.30;;;18.60;99.90;;;;;;5071774;28;20415;-57
2023/07/29 03:44:25;;;;;;;0.50;0.30;;;18.60;99.90;;;;;;5072762;28;20851;-57
2023/07/29 03:46:52;;;;;;;1.00;0.40;;;18.60;99.90;;;;;;5072216;28;20496;-57
2023/07/29 03:49:19;;;;;;;0.70;0.30;;;18.50;99.90;;;;;;5071782;28;20895;-56
2023/07/29 03:51:46;;;;;;;0.70;0.40;;;18.50;99.90;;;;;;5073386;28;20442;-57
2023/07/29 03:54:13;;;;;;;0.60;0.40;;;18.50;99.90;;;;;;5073622;28;20766;-56
2023/07/29 03:56:42;;;;;;;0.70;0.40;;;18.40;99.90;;;;;;5074388;28;20419;-57
2023/07/29 03:59:09;;;;;;;0.80;0.40;;;18.40;99.90;;;;;;5074180;28;20439;-58
2023/07/29 04:01:36;;;;;;;0.70;0.40;;;18.50;99.90;;;;;;5075024;28;20773;-53
2023/07/29 04:04:03;;;;;;;0.98;0.40;;;18.40;99.90;;;;;;5074017;28;20432;-55
2023/07/29 04:06:30;;;;;;;0.60;0.40;;;18.40;99.90;;;;;;5074747;28;20501;-56
2023/07/29 04:08:57;;;;;;;0.90;0.50;;;18.30;99.90;;;;;;5072756;28;20871;-55
2023/07/29 04:11:24;;;;;;;0.60;0.40;;;18.20;99.90;;;;;;5074476;28;20434;-55
2023/07/29 04:13:52;;;;;;;1.30;0.40;;;18.10;99.90;;;;;;5073703;28;20685;-56
2023/07/29 04:16:20;;;;;;;0.60;0.40;;;18.00;99.90;;;;;;5074594;28;20777;-51
2023/07/29 04:18:47;;;;;;;0.60;0.30;;;17.90;99.90;;;;;;5074575;28;20435;-55
2023/07/29 04:21:14;;;;;;;1.30;0.50;;;17.90;99.90;;;;;;5074544;28;20716;-54
2023/07/29 04:23:41;;;;;;;0.93;0.50;;;17.90;99.90;;;;;;5074266;28;20423;-54
2023/07/29 04:26:08;;;;;;;1.30;0.40;;;17.80;99.90;;;;;;5073890;28;20851;-54
2023/07/29 04:28:35;;;;;;;1.05;0.60;;;17.90;99.90;;;;;;5074308;28;20488;-55
2023/07/29 04:31:03;;;;;;;1.10;0.50;;;17.90;99.90;;;;;;5074463;28;20446;-54
2023/07/29 04:33:31;;;;;;;1.10;0.50;;;17.90;99.90;;;;;;5074573;28;20454;-49
2023/07/29 04:35:58;;;;;;;0.60;0.40;;;17.90;99.90;;;;;;5074130;28;20424;-55
2023/07/29 04:38:31;;;;;;;0.63;0.40;;;17.90;99.90;;;;;;5074445;28;20411;-59
2023/07/29 04:41:00;;;;;;;1.00;0.40;;;17.80;99.90;;;;;;5074330;28;20439;-58
2023/07/29 04:43:28;;;;;;;0.60;0.40;;;17.80;99.90;;;;;;5074184;28;20463;-55
2023/07/29 04:45:55;;;;;;;1.00;0.40;;;17.80;99.90;;;;;;5074048;28;20435;-54
2023/07/29 04:48:23;;;;;;;0.70;0.40;;;17.80;99.90;;;;;;5074017;28;20435;-52
2023/07/29 04:50:50;;;;;;;0.70;0.50;;;18.00;99.90;;;;;;5074064;28;20823;-50
2023/07/29 04:53:17;;;;;;;0.70;0.47;;;18.10;99.90;;;;;;5074138;28;20424;-51
2023/07/29 04:55:45;;;;;;;0.70;0.50;;;18.00;99.90;;;;;;5074121;28;20427;-53
2023/07/29 04:58:12;;;;;;;0.80;0.50;;;17.90;99.90;;;;;;5074431;28;20866;-51
2023/07/29 05:00:39;;;;;;;0.60;0.40;;;17.90;99.90;;;;;;5073672;28;20439;-52
2023/07/29 05:03:06;;;;;;;0.80;0.50;;;17.90;99.90;;;;;;5073152;28;20423;-51
2023/07/29 05:05:34;;;;;;;1.63;0.50;;;17.80;99.90;;;;;;5074256;28;20416;-52
2023/07/29 05:08:01;;;;;;;0.77;0.50;;;17.70;99.90;;;;;;5073877;28;20434;-52
2023/07/29 05:10:29;;;;;;;2.00;0.50;;;17.60;99.90;;;;;;5072824;28;20450;-51
2023/07/29 05:12:55;;;;;;;1.10;0.50;;;17.60;99.90;;;;;;5073446;28;20434;-50
2023/07/29 05:15:23;;;;;;;1.80;0.50;;;17.60;99.90;;;;;;5073860;28;20786;-52
2023/07/29 05:17:50;;;;;;;1.38;0.55;;;17.70;99.90;;;;;;5074308;28;20778;-54
2023/07/29 05:20:17;;;;;;;0.98;0.68;;;17.70;99.90;;;;;;5074310;28;20436;-51
2023/07/29 05:22:45;;;;;;;1.20;0.60;;;17.70;99.90;;;;;;5073682;28;20427;-53
2023/07/29 05:25:13;;;;;;;1.10;0.57;;;17.70;99.90;;;;;;5076017;28;20433;-53
2023/07/29 05:27:40;;;;;;;0.80;0.50;;;17.80;99.90;;;;;;5077219;28;20478;-54
2023/07/29 05:30:09;;;;;;;1.40;0.50;;;17.80;99.90;;;;;;5077044;28;20416;-49
2023/07/29 05:32:36;;;;;;;1.10;0.50;;;17.90;99.90;;;;;;5076512;28;20423;-53
2023/07/29 05:35:04;;;;;;;0.75;0.43;;;18.00;99.90;;;;;;5076219;28;20442;-54
2023/07/29 05:37:31;;;;;;;0.80;0.40;;;18.10;99.90;;;;;;5076839;28;20431;-57
2023/07/29 05:39:59;;;;;;;1.50;0.50;;;18.10;99.90;;;;;;5077393;28;20439;-55
2023/07/29 05:42:26;;;;;;;0.70;0.40;;;18.20;99.90;;;;;;5077359;28;20869;-54
2023/07/29 05:44:53;;;;;;;0.70;0.40;;;18.20;99.90;;;;;;5076706;28;20423;-54
2023/07/29 05:47:20;;;;;;;0.60;0.40;;;18.30;99.90;;;;;;5076605;28;20432;-54
2023/07/29 05:49:47;;;;;;;0.90;0.50;;;18.30;99.90;;;;;;5075377;28;20834;-52
2023/07/29 05:52:14;;;;;;;1.67;0.50;;;18.40;99.90;;;;;;5076168;28;20434;-57
2023/07/29 05:54:42;;;;;;;0.80;0.50;;;18.40;99.90;;;;;;5074888;28;20838;-54
2023/07/29 05:57:11;;;;;;;1.98;0.50;;;18.50;99.90;;;;;;5074687;28;20416;-53
2023/07/29 05:59:38;;;;;;;0.70;0.50;;;18.60;99.90;;;;;;5076571;28;20435;-56
2023/07/29 06:02:05;;;;;;;0.60;0.40;;;18.60;99.90;;;;;;5077181;28;20855;-54
2023/07/29 06:04:32;;;;;;;0.90;0.50;;;18.70;99.90;;;;;;5076799;28;20855;-53
2023/07/29 06:07:00;;;;;;;0.70;0.50;;;18.90;99.90;;;;;;5073844;28;20434;-55
2023/07/29 06:09:27;;;;;;;1.60;0.50;;;19.10;99.90;;;;;;5076438;28;20789;-54
2023/07/29 06:11:54;;;;;;;0.70;0.40;;;19.20;99.90;;;;;;5073919;28;20427;-53
2023/07/29 06:14:22;;;;;;;1.60;0.50;;;19.30;99.90;;;;;;5081181;28;20982;-52
2023/07/29 06:16:49;;;;;;;1.00;0.40;;;19.30;99.90;;;;;;5095503;28;20436;-52
2023/07/29 06:19:16;;;;;;;0.95;0.40;;;19.30;99.90;;;;;;5090659;28;20861;-53
2023/07/29 06:21:43;;;;;;;1.50;0.50;;;19.30;99.90;;;;;;5076611;28;20850;-54
2023/07/29 06:24:10;;;;;;;1.70;0.50;;;19.30;99.90;;;;;;5075970;28;20420;-54
2023/07/29 06:26:38;;;;;;;1.10;0.50;;;19.40;99.90;;;;;;5075749;28;20420;-57
2023/07/29 06:29:05;;;;;;;1.00;0.50;;;19.40;99.90;;;;;;5075668;28;20848;-55
2023/07/29 06:31:33;;;;;;;0.70;0.40;;;19.50;99.90;;;;;;5075770;28;20420;-54
2023/07/29 06:34:00;;;;;;;0.80;0.50;;;19.50;99.90;;;;;;5076107;28;20431;-55
2023/07/29 06:36:27;;;;;;;1.00;0.50;;;19.70;99.90;;;;;;5075133;28;20514;-50
2023/07/29 06:38:54;;;;;;;0.63;0.40;;;19.70;99.90;;;;;;5073421;28;20424;-51
2023/07/29 06:41:21;;;;;;;0.80;0.40;;;19.70;99.90;;;;;;5067725;28;20432;-53
2023/07/29 06:43:48;;;;;;;0.70;0.40;;;19.60;99.90;;;;;;5075478;28;20438;-51
2023/07/29 06:46:15;;;;;;;0.70;0.40;;;19.60;99.90;;;;;;5075207;28;20434;-52
2023/07/29 06:48:44;;;;;;;0.70;0.30;;;19.70;99.90;;;;;;5075682;28;20442;-54
2023/07/29 06:51:11;;;;;;;0.60;0.40;;;19.90;99.90;;;;;;5074413;28;20412;-55
2023/07/29 06:53:38;;;;;;;0.60;0.40;;;19.90;99.90;;;;;;5075493;28;20652;-52
2023/07/29 06:56:05;;;;;;;0.60;0.40;;;19.90;99.90;;;;;;5071878;28;20475;-54
2023/07/29 06:58:32;;;;;;;1.20;0.40;;;19.90;99.90;;;;;;5062744;28;20422;-56
2023/07/29 07:00:59;;;;;;;0.55;0.40;;;19.80;99.90;;;;;;5062475;28;20440;-53
2023/07/29 07:03:26;;;;;;;0.60;0.40;;;19.80;99.90;;;;;;5054756;28;20432;-55
2023/07/29 07:05:55;;;;;;;0.60;0.40;;;19.80;99.90;;;;;;5055071;28;20425;-51
2023/07/29 07:08:22;;;;;;;1.00;0.40;;;19.80;99.90;;;;;;5064486;28;20427;-53
2023/07/29 07:10:49;;;;;;;0.80;0.40;;;19.70;99.90;;;;;;5074576;28;20431;-54
2023/07/29 07:13:16;;;;;;;0.50;0.38;;;19.70;99.90;;;;;;5071148;28;20432;-53
2023/07/29 07:15:43;;;;;;;0.70;0.40;;;19.70;99.90;;;;;;5072339;28;20434;-53
2023/07/29 07:18:10;;;;;;;0.80;0.40;;;19.60;99.90;;;;;;5074415;28;20427;-55
2023/07/29 07:20:37;;;;;;;1.50;0.40;;;19.60;99.90;;;;;;5074748;28;20431;-55
2023/07/29 07:23:10;;;;;;;0.80;0.40;;;19.60;99.90;;;;;;5074653;28;20895;-54
2023/07/29 07:25:37;;;;;;;0.60;0.40;;;19.50;99.90;;;;;;5073680;28;20454;-53
2023/07/29 07:28:04;;;;;;;0.75;0.40;;;19.50;99.90;;;;;;5072872;28;20439;-52
2023/07/29 07:30:31;;;;;;;1.00;0.40;;;19.60;99.90;;;;;;5073942;28;20432;-56
2023/07/29 07:32:58;;;;;;;0.63;0.30;;;19.60;99.90;;;;;;5072237;28;20739;-57
2023/07/29 07:35:25;;;;;;;0.50;0.30;;;19.60;99.90;;;;;;5071108;28;20843;-54
2023/07/29 07:37:52;;;;;;;0.90;0.30;;;19.60;99.90;;;;;;5073215;28;20485;-54
2023/07/29 07:40:21;;;;;;;0.60;0.30;;;19.70;99.90;;;;;;5069385;28;20637;-51
2023/07/29 07:42:48;;;;;;;0.80;0.30;;;19.80;99.90;;;;;;5065024;28;20842;-51
2023/07/29 07:45:15;;;;;;;0.50;0.30;;;19.80;99.90;;;;;;5073789;28;20428;-54
2023/07/29 07:47:42;;;;;;;0.53;0.30;;;19.80;99.90;;;;;;5071524;28;20835;-54
2023/07/29 07:50:09;;;;;;;1.33;0.40;;;19.90;99.90;;;;;;5069703;28;20442;-56
2023/07/29 07:52:36;;;;;;;0.50;0.30;;;19.80;99.90;;;;;;5058331;28;20912;-52
2023/07/29 07:55:04;;;;;;;1.15;0.77;;;19.80;99.90;;;;;;5054578;28;20789;-56
2023/07/29 07:57:32;;;;;;;2.70;2.10;;;19.90;99.90;;;;;;5053192;28;20433;-53
2023/07/29 07:59:59;;;;;;;0.80;0.40;;;19.90;99.90;;;;;;5052348;28;20919;-55
2023/07/29 08:02:26;;;;;;;0.80;0.40;;;19.80;99.90;;;;;;5053166;28;20420;-53
2023/07/29 08:04:53;;;;;;;0.55;0.30;;;19.80;99.90;;;;;;5053699;28;20448;-53
2023/07/29 08:07:20;;;;;;;0.90;0.30;;;19.80;99.90;;;;;;5054950;28;20436;-60
2023/07/29 08:09:47;;;;;;;0.60;0.30;;;19.90;99.90;;;;;;5074450;28;20473;-54
2023/07/29 08:12:14;;;;;;;0.50;0.30;;;19.90;99.90;;;;;;5073566;28;20477;-52
2023/07/29 08:14:42;;;;;;;0.70;0.40;;;20.00;99.90;;;;;;5073445;28;20431;-57
2023/07/29 08:17:09;;;;;;;0.60;0.40;;;20.00;99.90;;;;;;5073292;28;20501;-55
2023/07/29 08:19:37;;;;;;;0.60;0.30;;;20.20;99.90;;;;;;5072814;28;20427;-56
2023/07/29 08:22:04;;;;;;;0.60;0.30;;;20.30;99.90;;;;;;5074197;28;20432;-57
2023/07/29 08:24:31;;;;;;;1.30;0.30;;;20.50;99.90;;;;;;5073314;28;20506;-56
2023/07/29 08:26:58;;;;;;;0.60;0.30;;;20.50;99.90;;;;;;5074808;28;20416;-55
2023/07/29 08:29:25;;;;;;;0.80;0.30;;;20.70;99.90;;;;;;5073650;28;20893;-55
2023/07/29 08:31:55;;;;;;;0.70;0.40;;;20.70;99.90;;;;;;5072827;28;20434;-56
2023/07/29 08:34:22;;;;;;;0.70;0.30;;;20.80;99.90;;;;;;5071886;28;20431;-57
2023/07/29 08:36:49;;;;;;;1.40;0.32;;;20.80;99.90;;;;;;5072386;28;20432;-55
2023/07/29 08:39:16;;;;;;;0.80;0.40;;;20.80;99.90;;;;;;5065910;28;20848;-60
2023/07/29 08:41:50;;;;;;;0.60;0.30;;;21.00;99.90;;;;;;5067057;28;20431;-57
2023/07/29 08:44:22;;;;;;;0.50;0.30;;;21.00;99.90;;;;;;5068710;28;20534;-57
2023/07/29 08:46:49;;;;;;;0.80;0.40;;;21.10;99.90;;;;;;5070748;28;20489;-57
2023/07/29 08:49:19;;;;;;;0.60;0.40;;;21.10;99.90;;;;;;5072369;28;20426;-58
2023/07/29 08:51:48;;;;;;;0.50;0.30;;;21.10;99.90;;;;;;5072909;28;20517;-59
2023/07/29 08:54:16;;;;;;;0.80;0.30;;;21.20;99.90;;;;;;5072229;28;20501;-58
2023/07/29 08:56:44;;;;;;;0.70;0.30;;;21.20;99.90;;;;;;5073500;28;21061;-59
2023/07/29 08:59:11;;;;;;;0.45;0.20;;;21.50;99.90;;;;;;5068560;28;20504;-59
2023/07/29 09:01:39;;;;;;;0.50;0.30;;;21.80;99.90;;;;;;5063110;28;20437;-58
2023/07/29 09:04:07;;;;;;;0.60;0.30;;;22.00;99.90;;;;;;5069732;28;20431;-58
2023/07/29 09:06:38;;;;;;;0.50;0.30;;;22.20;99.90;;;;;;5077792;28;20500;-57
2023/07/29 09:09:05;;;;;;;0.50;0.20;;;22.40;99.90;;;;;;5075565;28;20481;-57
2023/07/29 09:11:33;;;;;;;0.77;0.30;;;22.60;99.90;;;;;;5090257;28;20484;-57
2023/07/29 09:14:00;;;;;;;0.50;0.30;;;22.80;99.90;;;;;;5073670;28;20445;-58
2023/07/29 09:16:28;;;;;;;0.70;0.30;;;22.70;99.90;;;;;;5075668;28;20435;-58
2023/07/29 09:18:55;;;;;;;0.50;0.30;;;22.60;99.90;;;;;;5073016;28;20431;-58
2023/07/29 09:21:24;;;;;;;0.50;0.30;;;22.60;99.90;;;;;;5074573;28;20492;-58
2023/07/29 09:23:53;;;;;;;0.60;0.30;;;22.60;99.90;;;;;;5055285;28;20435;-57
2023/07/29 09:26:24;;;;;;;0.50;0.30;;;22.70;99.90;;;;;;5074958;28;20441;-57
2023/07/29 09:28:54;;;;;;;0.50;0.30;;;22.60;99.90;;;;;;5075132;28;20550;-59
2023/07/29 09:31:22;;;;;;;1.00;0.30;;;22.60;99.90;;;;;;5075184;28;20455;-57
2023/07/29 09:33:49;;;;;;;0.50;0.30;;;22.50;99.90;;;;;;5072372;28;20442;-57
2023/07/29 09:36:16;;;;;;;1.90;0.40;;;22.70;99.90;;;;;;5074903;28;20940;-56
2023/07/29 09:38:45;;;;;;;0.50;0.30;;;22.90;99.90;;;;;;5075339;28;20427;-57
2023/07/29 09:41:16;;;;;;;0.50;0.30;;;23.10;99.90;;;;;;5074335;28;21006;-57
2023/07/29 09:43:43;;;;;;;0.73;0.30;;;23.40;99.90;;;;;;5074858;28;20701;-58
2023/07/29 09:46:10;;;;;;;1.20;0.40;;;23.40;98.60;;;;;;5074912;28;20420;-57
2023/07/29 09:48:38;;;;;;;1.40;0.30;;;23.60;99.90;;;;;;5072633;28;20435;-57
2023/07/29 09:51:12;;;;;;;0.50;0.30;;;23.70;72.20;;;;;;5072368;28;20801;-57
2023/07/29 09:53:42;;;;;;;0.40;0.30;;;24.00;61.50;;;;;;5051960;28;20553;-57
2023/07/29 09:56:09;;;;;;;0.50;0.30;;;24.20;18.30;;;;;;5064934;28;20512;-57
2023/07/29 09:58:38;;;;;;;0.50;0.30;;;24.20;1.00;;;;;;5071786;28;20432;-57
2023/07/29 10:01:05;;;;;;;0.50;0.30;;;24.20;12.00;;;;;;5072958;28;20502;-57
2023/07/29 10:03:33;;;;;;;0.60;0.40;;;24.20;7.40;;;;;;5074198;28;20449;-57
2023/07/29 10:06:02;;;;;;;0.60;0.30;;;24.40;11.20;;;;;;5074953;28;20426;-56
2023/07/29 10:08:31;;;;;;;0.50;0.30;;;24.70;7.00;;;;;;5075460;28;20431;-57
2023/07/29 10:11:01;;;;;;;0.60;0.30;;;24.80;1.00;;;;;;5074436;28;20510;-59
2023/07/29 10:13:28;;;;;;;0.50;0.30;;;24.50;1.00;;;;;;5074586;28;20789;-58
2023/07/29 10:15:56;;;;;;;0.60;0.30;;;24.80;1.00;;;;;;5070581;28;20435;-58
2023/07/29 10:18:24;;;;;;;0.50;0.30;;;25.00;1.00;;;;;;5073714;28;20527;-58
2023/07/29 10:20:52;;;;;;;0.68;0.40;;;25.20;1.00;;;;;;5073150;28;20867;-58
2023/07/29 10:23:22;;;;;;;0.50;0.30;;;25.30;1.00;;;;;;5073196;28;20918;-58
2023/07/29 10:25:56;;;;;;;0.50;0.30;;;25.30;1.00;;;;;;5074242;28;20427;-59
2023/07/29 10:28:26;;;;;;;0.60;0.40;;;25.50;1.00;;;;;;5072903;28;20879;-59
2023/07/29 10:30:54;;;;;;;0.50;0.30;;;25.70;1.00;;;;;;5073578;28;20898;-58
2023/07/29 10:33:23;;;;;;;0.60;0.30;;;25.60;1.00;;;;;;5073920;28;20430;-58
2023/07/29 10:35:51;;;;;;;0.50;0.30;;;25.30;1.00;;;;;;5072375;28;20728;-57
2023/07/29 10:38:18;;;;;;;0.90;0.30;;;25.10;1.00;;;;;;5072469;28;20439;-57
2023/07/29 10:40:48;;;;;;;0.60;0.30;;;24.90;1.00;;;;;;5073505;28;20762;-57
2023/07/29 10:43:20;;;;;;;0.70;0.30;;;25.00;1.00;;;;;;5073280;28;20431;-58
2023/07/29 10:45:47;;;;;;;0.50;0.30;;;24.80;1.00;;;;;;5073800;28;20438;-58
2023/07/29 10:48:42;;;;;;;0.50;0.30;;;24.80;4.00;;;;;;5060146;28;20769;-58
2023/07/29 10:51:30;;;;;;;0.60;0.30;;;24.40;25.40;;;;;;5059640;28;20964;-58
2023/07/29 10:53:58;;;;;;;0.70;0.33;;;24.20;29.30;;;;;;5073442;28;20426;-58
2023/07/29 10:56:31;;;;;;;0.57;0.30;;;24.40;28.90;;;;;;5074397;28;20423;-58
2023/07/29 10:59:00;;;;;;;0.60;0.30;;;24.60;1.00;;;;;;5072528;28;20441;-58
2023/07/29 11:01:32;;;;;;;0.50;0.30;;;25.20;1.00;;;;;;5054338;28;20459;-58
2023/07/29 11:04:30;;;;;;;0.50;0.30;;;25.10;1.00;;;;;;5062193;28;20441;-58
2023/07/29 11:07:26;;;;;;;1.20;0.30;;;25.20;1.00;;;;;;5067260;28;20424;-58
2023/07/29 11:09:59;;;;;;;0.50;0.30;;;25.10;1.00;;;;;;5061495;28;20439;-58
2023/07/29 11:12:54;;;;;;;0.53;0.30;;;25.00;1.00;;;;;;5064400;28;20435;-63
2023/07/29 11:15:23;;;;;;;0.60;0.40;;;25.00;1.00;;;;;;5031632;28;20451;-59
2023/07/29 11:17:52;;;;;;;0.60;0.30;;;25.10;1.00;;;;;;5073821;28;20481;-58
2023/07/29 11:20:21;;;;;;;0.60;0.30;;;25.30;1.00;;;;;;5073108;28;20440;-59
2023/07/29 11:22:49;;;;;;;1.20;0.50;;;25.50;1.00;;;;;;5072285;28;20435;-59
2023/07/29 11:25:18;;;;;;;3.08;1.50;;;25.60;1.00;;;;;;5066983;28;20675;-59
2023/07/29 11:27:46;;;;;;;0.80;0.50;;;25.50;1.00;;;;;;5067115;28;21011;-59
2023/07/29 11:30:14;;;;;;;1.25;1.00;;;25.50;1.00;;;;;;5068709;28;20427;-59
2023/07/29 11:32:43;;;;;;;0.60;0.40;;;25.50;1.00;;;;;;5071961;28;20432;-58
2023/07/29 11:35:12;;;;;;;0.50;0.30;;;25.30;1.00;;;;;;5070453;28;20737;-58
2023/07/29 11:37:41;;;;;;;1.30;1.00;;;25.30;1.00;;;;;;5072703;28;20490;-58
2023/07/29 11:40:10;;;;;;;0.50;0.30;;;25.40;1.00;;;;;;5072358;28;20436;-57
2023/07/29 11:42:39;;;;;;;0.52;0.30;;;25.40;1.00;;;;;;5062761;28;20443;-57
2023/07/29 11:45:09;;;;;;;0.50;0.30;;;25.50;1.00;;;;;;5071594;28;20489;-60
2023/07/29 11:47:36;;;;;;;0.60;0.38;;;25.30;1.00;;;;;;5073409;28;20415;-58
2023/07/29 11:50:05;;;;;;;0.50;0.30;;;25.10;1.00;;;;;;5072742;28;20435;-58
2023/07/29 11:52:33;;;;;;;0.60;0.30;;;25.00;1.00;;;;;;5070899;28;20435;-59
2023/07/29 11:55:03;;;;;;;0.85;0.35;;;25.10;1.00;;;;;;5071900;28;20491;-59
2023/07/29 11:57:30;;;;;;;0.50;0.30;;;25.50;1.00;;;;;;5072392;28;20531;-58
2023/07/29 11:59:58;;;;;;;0.65;0.30;;;26.00;1.00;;;;;;5072842;28;20419;-59
2023/07/29 12:02:26;;;;;;;0.50;0.30;;;26.40;99.90;;;;;;5073046;28;20446;-59
2023/07/29 12:04:53;;;;;;;0.60;0.30;;;26.60;99.90;;;;;;5072085;28;20522;-59
2023/07/29 12:07:20;;;;;;;0.52;0.30;;;26.50;1.00;;;;;;5071513;28;20504;-58
2023/07/29 12:09:48;;;;;;;0.60;0.30;;;26.70;99.90;;;;;;5071797;28;21094;-59
2023/07/29 12:12:17;;;;;;;0.60;0.32;;;27.00;99.90;;;;;;5071973;28;20564;-59
2023/07/29 12:14:46;;;;;;;0.50;0.38;;;27.50;1.00;;;;;;5071205;28;20424;-59
2023/07/29 12:17:14;;;;;;;0.63;0.40;;;27.70;1.00;;;;;;5073403;28;20470;-59
2023/07/29 12:19:41;;;;;;;0.50;0.30;;;27.90;1.00;;;;;;5072210;28;20536;-59
2023/07/29 12:22:10;;;;;;;0.60;0.30;;;27.70;99.90;;;;;;5072877;28;20501;-58
2023/07/29 12:24:39;;;;;;;0.50;0.30;;;27.30;99.90;;;;;;5070621;28;20863;-58
2023/07/29 12:27:11;;;;;;;0.77;0.30;;;27.40;99.90;;;;;;5067826;28;20424;-58
2023/07/29 12:29:43;;;;;;;0.70;0.40;;;27.80;99.90;;;;;;5052835;28;20425;-59
2023/07/29 12:32:11;;;;;;;0.60;0.40;;;27.60;99.90;;;;;;5063158;28;20431;-58
2023/07/29 12:34:39;;;;;;;0.63;0.40;;;27.40;99.90;;;;;;5076102;28;20481;-59
2023/07/29 12:37:07;;;;;;;0.60;0.40;;;27.20;1.00;;;;;;5076702;28;20521;-59
2023/07/29 12:39:37;;;;;;;0.60;0.30;;;27.10;1.00;;;;;;5076884;28;20431;-59
2023/07/29 12:42:04;;;;;;;0.57;0.30;;;27.50;1.00;;;;;;5077006;28;20774;-59
2023/07/29 12:44:33;;;;;;;0.60;0.40;;;27.70;1.00;;;;;;5074761;28;20898;-59
2023/07/29 12:47:02;;;;;;;0.60;0.40;;;28.20;99.90;;;;;;5077109;28;20856;-60
2023/07/29 12:49:29;;;;;;;0.88;0.30;;;28.50;97.20;;;;;;5075922;28;20747;-60
2023/07/29 12:51:57;;;;;;;0.50;0.40;;;28.50;20.40;;;;;;5076814;28;20442;-59
2023/07/29 12:54:24;;;;;;;2.03;1.30;;;28.50;99.90;;;;;;5075401;28;20437;-59